createdAt,value
2017-03-26T00:00:08.669Z,1019.62
2017-03-26T00:00:49.400Z,1019.64
2017-03-26T00:01:30.051Z,1019.61
2017-03-26T00:02:10.706Z,1019.58
2017-03-26T00:02:51.269Z,1019.58
2017-03-26T00:03:32.127Z,1019.65
2017-03-26T00:04:12.778Z,1019.62
2017-03-26T00:04:53.722Z,1019.67
2017-03-26T00:05:34.588Z,1019.66
2017-03-26T00:06:15.237Z,1019.7
2017-03-26T00:06:55.894Z,1019.69
2017-03-26T00:07:36.545Z,1019.69
2017-03-26T00:08:17.200Z,1019.67
2017-03-26T00:08:57.855Z,1019.66
2017-03-26T00:09:38.504Z,1019.67
2017-03-26T00:10:19.156Z,1019.62
2017-03-26T00:10:59.819Z,1019.65
2017-03-26T00:11:40.459Z,1019.64
2017-03-26T00:12:21.119Z,1019.67
2017-03-26T00:13:02.795Z,1019.67
2017-03-26T00:13:43.446Z,1019.66
2017-03-26T00:14:24.099Z,1019.67
2017-03-26T00:15:04.686Z,1019.68
2017-03-26T00:15:45.377Z,1019.72
2017-03-26T00:16:27.005Z,1019.73
2017-03-26T00:17:07.635Z,1019.71
2017-03-26T00:17:48.204Z,1019.71
2017-03-26T00:18:28.795Z,1019.72
2017-03-26T00:19:09.397Z,1019.68
2017-03-26T00:19:50.039Z,1019.64
2017-03-26T00:20:30.617Z,1019.65
2017-03-26T00:21:11.258Z,1019.62
2017-03-26T00:21:51.889Z,1019.58
2017-03-26T08:40:16.218Z,1020.01
2017-03-26T08:40:56.791Z,1020.05
2017-03-26T08:41:37.407Z,1020.03
2017-03-26T08:42:18.075Z,1020.01
2017-03-26T08:42:58.646Z,1020.06
2017-03-26T08:43:39.337Z,1020.05
2017-03-26T08:44:20.959Z,1020.07
2017-03-26T08:45:01.611Z,1020.04
2017-03-26T08:45:42.177Z,1020.05
2017-03-26T08:46:22.756Z,1020.09
2017-03-26T08:47:04.386Z,1020.08
2017-03-26T08:47:44.938Z,1020.04
2017-03-26T08:48:25.594Z,1020.07
2017-03-26T08:49:06.143Z,1020.07
2017-03-26T08:49:46.744Z,1020.04
2017-03-26T08:50:28.372Z,1020.04
2017-03-26T08:51:09.026Z,1020.06
2017-03-26T08:51:49.605Z,1020.03
2017-03-26T08:52:30.186Z,1020.02
2017-03-26T08:53:10.872Z,1020.04
2017-03-26T08:53:51.464Z,1020.05
2017-03-26T08:54:32.053Z,1020.04
2017-03-26T08:55:12.838Z,1020.01
2017-03-26T08:55:53.408Z,1020.03
2017-03-26T08:56:34.094Z,1020.02
2017-03-26T08:57:15.768Z,1020.04
2017-03-26T08:57:56.422Z,1020.03
2017-03-26T08:58:37.071Z,1020.04
2017-03-26T08:59:17.718Z,1020
2017-03-26T08:59:58.383Z,1020.03
2017-03-26T09:00:39.144Z,1020.04
2017-03-26T09:01:19.888Z,1020.06
2017-03-26T09:02:00.594Z,1020.07
2017-03-26T09:02:41.246Z,1020.06
2017-03-26T09:03:21.948Z,1020.05
2017-03-26T09:04:03.575Z,1020.06
2017-03-26T09:04:44.330Z,1020.07
2017-03-26T09:05:24.973Z,1020.07
2017-03-26T09:06:05.636Z,1020.09
2017-03-26T09:06:46.290Z,1020.03
2017-03-26T09:07:26.864Z,1020.05
2017-03-26T09:08:07.569Z,1020.05
2017-03-26T09:08:48.237Z,1020.02
2017-03-26T09:09:28.901Z,1020.05
2017-03-26T09:10:09.453Z,1020.02
2017-03-26T09:10:50.104Z,1020.03
2017-03-26T09:11:30.862Z,1020.02
2017-03-26T09:12:11.512Z,1020.04
2017-03-26T09:12:52.269Z,1019.98
2017-03-26T09:13:33.025Z,1019.99
2017-03-26T09:14:13.677Z,1019.94
2017-03-26T09:14:54.332Z,1019.94
2017-03-26T09:15:35.091Z,1019.93
2017-03-26T09:16:15.656Z,1019.98
2017-03-26T09:16:56.368Z,1019.96
2017-03-26T09:17:37.048Z,1019.98
2017-03-26T09:18:17.699Z,1019.96
2017-03-26T09:18:58.304Z,1019.96
2017-03-26T09:19:38.975Z,1020
2017-03-26T09:20:19.760Z,1019.96
2017-03-26T09:21:00.512Z,1019.94
2017-03-26T09:21:41.090Z,1019.97
2017-03-26T09:22:21.768Z,1019.99
2017-03-26T09:23:02.476Z,1020
2017-03-26T09:23:43.230Z,1019.97
2017-03-26T09:24:23.817Z,1019.94
2017-03-26T09:25:04.532Z,1020
2017-03-26T09:25:45.286Z,1020
2017-03-26T09:26:25.870Z,1019.97
2017-03-26T09:27:06.598Z,1019.96
2017-03-26T09:27:47.353Z,1019.97
2017-03-26T09:28:28.001Z,1019.94
2017-03-26T09:29:08.565Z,1019.95
2017-03-26T09:29:49.221Z,1019.97
2017-03-26T09:30:29.863Z,1019.93
2017-03-26T09:31:10.441Z,1019.94
2017-03-26T09:31:51.065Z,1019.93
2017-03-26T09:32:31.713Z,1019.92
2017-03-26T09:33:12.268Z,1019.91
2017-03-26T09:33:52.916Z,1019.95
2017-03-26T09:34:33.488Z,1019.94
2017-03-26T09:35:14.055Z,1019.93
2017-03-26T09:35:54.747Z,1019.87
2017-03-26T09:36:35.330Z,1019.87
2017-03-26T09:37:15.974Z,1019.95
2017-03-26T09:37:56.633Z,1019.85
2017-03-26T09:38:37.291Z,1019.96
2017-03-26T09:39:17.935Z,1019.93
2017-03-26T09:39:58.591Z,1019.89
2017-03-26T09:40:39.241Z,1019.85
2017-03-26T09:41:19.809Z,1019.85
2017-03-26T09:42:00.514Z,1019.79
2017-03-26T09:42:41.095Z,1019.79
2017-03-26T09:43:21.651Z,1019.82
2017-03-26T09:44:02.226Z,1019.91
2017-03-26T09:44:42.897Z,1019.92
2017-03-26T09:45:23.506Z,1019.97
2017-03-26T09:46:04.162Z,1019.93
2017-03-26T09:46:44.742Z,1019.94
2017-03-26T09:47:25.331Z,1019.93
2017-03-26T09:48:05.902Z,1019.95
2017-03-26T09:48:46.568Z,1019.95
2017-03-26T09:49:27.137Z,1019.92
2017-03-26T09:50:07.735Z,1019.93
2017-03-26T09:50:48.319Z,1019.9
2017-03-26T09:51:28.975Z,1019.91
2017-03-26T09:52:09.553Z,1019.87
2017-03-26T09:52:50.143Z,1019.89
2017-03-26T09:53:30.828Z,1019.87
2017-03-26T09:54:11.486Z,1019.86
2017-03-26T09:54:52.055Z,1019.85
2017-03-26T09:55:32.663Z,1019.89
2017-03-26T09:56:13.248Z,1019.88
2017-03-26T09:56:53.892Z,1019.89
2017-03-26T09:57:34.454Z,1019.89
2017-03-26T09:58:16.082Z,1019.82
2017-03-26T09:58:56.666Z,1019.88
2017-03-26T09:59:37.331Z,1019.91
2017-03-26T10:00:17.883Z,1019.86
2017-03-26T10:00:58.497Z,1019.84
2017-03-26T10:01:39.046Z,1019.87
2017-03-26T10:02:19.679Z,1019.81
2017-03-26T10:03:00.285Z,1019.77
2017-03-26T10:03:40.941Z,1019.77
2017-03-26T10:04:21.505Z,1019.75
2017-03-26T10:05:02.105Z,1019.73
2017-03-26T10:05:42.693Z,1019.66
2017-03-26T10:06:23.345Z,1019.68
2017-03-26T10:07:03.923Z,1019.74
2017-03-26T10:07:45.567Z,1019.76
2017-03-26T10:08:26.234Z,1019.76
2017-03-26T10:09:06.789Z,1019.75
2017-03-26T10:09:47.432Z,1019.78
2017-03-26T10:10:28.074Z,1019.79
2017-03-26T10:11:08.660Z,1019.8
2017-03-26T10:11:49.291Z,1019.81
2017-03-26T10:12:29.930Z,1019.82
2017-03-26T10:13:10.508Z,1019.84
2017-03-26T10:13:51.243Z,1019.83
2017-03-26T10:14:31.896Z,1019.81
2017-03-26T10:15:12.482Z,1019.77
2017-03-26T10:15:53.100Z,1019.76
2017-03-26T10:16:33.756Z,1019.77
2017-03-26T10:17:14.324Z,1019.79
2017-03-26T10:17:54.914Z,1019.72
2017-03-26T10:18:35.505Z,1019.77
2017-03-26T10:19:16.151Z,1019.78
2017-03-26T10:19:56.718Z,1019.81
2017-03-26T10:20:37.331Z,1019.8
2017-03-26T10:21:18.021Z,1019.79
2017-03-26T10:21:58.662Z,1019.75
2017-03-26T10:22:39.316Z,1019.73
2017-03-26T10:23:19.974Z,1019.74
2017-03-26T10:24:00.627Z,1019.73
2017-03-26T10:24:41.271Z,1019.72
2017-03-26T10:25:21.923Z,1019.7
2017-03-26T10:26:02.588Z,1019.71
2017-03-26T10:26:43.245Z,1019.69
2017-03-26T10:27:23.827Z,1019.68
2017-03-26T10:28:04.400Z,1019.73
2017-03-26T10:28:45.006Z,1019.77
2017-03-26T10:29:25.656Z,1019.74
2017-03-26T10:30:06.245Z,1019.7
2017-03-26T10:30:47.842Z,1019.68
2017-03-26T10:31:28.435Z,1019.7
2017-03-26T10:32:09.088Z,1019.69
2017-03-26T10:32:49.672Z,1019.71
2017-03-26T10:33:30.369Z,1019.69
2017-03-26T10:34:11.058Z,1019.65
2017-03-26T10:34:51.702Z,1019.69
2017-03-26T10:35:32.306Z,1019.71
2017-03-26T10:36:12.984Z,1019.67
2017-03-26T10:36:53.658Z,1019.65
2017-03-26T10:37:34.316Z,1019.65
2017-03-26T10:38:14.880Z,1019.66
2017-03-26T10:38:55.471Z,1019.68
2017-03-26T10:39:36.084Z,1019.67
2017-03-26T10:40:16.716Z,1019.68
2017-03-26T10:40:57.281Z,1019.72
2017-03-26T10:41:37.910Z,1019.68
2017-03-26T10:42:18.573Z,1019.66
2017-03-26T10:42:59.134Z,1019.56
2017-03-26T10:43:39.734Z,1019.52
2017-03-26T10:44:20.391Z,1019.58
2017-03-26T10:45:00.950Z,1019.58
2017-03-26T10:45:41.602Z,1019.53
2017-03-26T10:46:22.249Z,1019.51
2017-03-26T10:47:02.815Z,1019.54
2017-03-26T10:47:43.404Z,1019.52
2017-03-26T10:48:23.999Z,1019.49
2017-03-26T10:49:04.651Z,1019.51
2017-03-26T10:49:45.220Z,1019.49
2017-03-26T10:50:25.827Z,1019.49
2017-03-26T10:51:06.507Z,1019.46
2017-03-26T10:51:47.165Z,1019.43
2017-03-26T10:52:27.728Z,1019.44
2017-03-26T10:53:08.370Z,1019.44
2017-03-26T10:53:49.024Z,1019.4
2017-03-26T10:54:29.596Z,1019.39
2017-03-26T10:55:10.279Z,1019.38
2017-03-26T10:55:50.852Z,1019.35
2017-03-26T10:56:31.420Z,1019.32
2017-03-26T10:57:12.141Z,1019.36
2017-03-26T10:57:52.761Z,1019.35
2017-03-26T10:58:33.402Z,1019.3
2017-03-26T10:59:14.069Z,1019.32
2017-03-26T10:59:54.719Z,1019.31
2017-03-26T11:00:35.376Z,1019.32
2017-03-26T11:01:16.027Z,1019.32
2017-03-26T11:01:56.601Z,1019.31
2017-03-26T11:02:37.184Z,1019.33
2017-03-26T11:03:17.898Z,1019.29
2017-03-26T11:03:58.537Z,1019.3
2017-03-26T11:04:39.088Z,1019.27
2017-03-26T11:05:19.842Z,1019.22
2017-03-26T11:06:00.477Z,1019.27
2017-03-26T11:06:41.525Z,1019.23
2017-03-26T11:07:22.174Z,1019.23
2017-03-26T11:08:02.830Z,1019.27
2017-03-26T11:08:43.480Z,1019.23
2017-03-26T11:09:25.156Z,1019.24
2017-03-26T11:10:05.807Z,1019.2
2017-03-26T11:10:47.487Z,1019.28
2017-03-26T11:11:28.144Z,1019.22
2017-03-26T11:12:10.226Z,1019.17
2017-03-26T11:12:50.881Z,1019.2
2017-03-26T11:13:31.539Z,1019.22
2017-03-26T11:14:12.191Z,1019.2
2017-03-26T11:14:52.844Z,1019.23
2017-03-26T11:15:33.493Z,1019.26
2017-03-26T11:16:14.150Z,1019.19
2017-03-26T11:16:54.803Z,1019.22
2017-03-26T11:17:36.479Z,1019.19
2017-03-26T11:18:17.092Z,1019.21
2017-03-26T11:18:57.744Z,1019.24
2017-03-26T11:19:38.410Z,1019.24
2017-03-26T11:20:19.045Z,1019.22
2017-03-26T11:20:59.701Z,1019.2
2017-03-26T11:21:40.269Z,1019.18
2017-03-26T11:22:20.853Z,1019.18
2017-03-26T11:23:01.472Z,1019.2
2017-03-26T11:23:42.114Z,1019.18
2017-03-26T11:24:22.697Z,1019.19
2017-03-26T11:25:03.381Z,1019.21
2017-03-26T11:25:44.061Z,1019.24
2017-03-26T11:26:24.726Z,1019.24
2017-03-26T11:27:05.319Z,1019.22
2017-03-26T11:27:45.950Z,1019.28
2017-03-26T11:28:26.491Z,1019.27
2017-03-26T11:29:07.191Z,1019.26
2017-03-26T11:29:47.779Z,1019.23
2017-03-26T11:30:28.437Z,1019.18
2017-03-26T11:31:08.999Z,1019.14
2017-03-26T11:31:49.610Z,1019.16
2017-03-26T11:32:30.199Z,1019.13
2017-03-26T11:33:10.843Z,1019.14
2017-03-26T11:33:51.410Z,1019.2
2017-03-26T11:34:32.405Z,1019.16
2017-03-26T11:35:13.018Z,1019.19
2017-03-26T11:35:53.661Z,1019.19
2017-03-26T11:36:34.226Z,1019.15
2017-03-26T11:37:14.811Z,1019.15
2017-03-26T11:37:55.413Z,1019.12
2017-03-26T11:38:36.069Z,1019.16
2017-03-26T11:39:16.638Z,1019.13
2017-03-26T11:39:57.196Z,1019.11
2017-03-26T11:40:38.846Z,1019.09
2017-03-26T11:41:19.499Z,1019.05
2017-03-26T11:42:00.061Z,1019
2017-03-26T11:42:40.651Z,1019.05
2017-03-26T11:43:21.261Z,1019.06
2017-03-26T11:44:01.918Z,1019.04
2017-03-26T11:44:42.484Z,1019.04
2017-03-26T11:45:23.059Z,1019.07
2017-03-26T11:46:03.665Z,1019.05
2017-03-26T11:46:44.311Z,1019.05
2017-03-26T11:47:24.884Z,1019
2017-03-26T11:48:05.447Z,1019.02
2017-03-26T11:48:46.066Z,1019.03
2017-03-26T11:49:26.641Z,1019.03
2017-03-26T11:50:07.225Z,1019.08
2017-03-26T11:50:47.829Z,1019.06
2017-03-26T11:51:28.474Z,1019.05
2017-03-26T11:52:09.128Z,1019.07
2017-03-26T11:52:50.804Z,1019.05
2017-03-26T11:53:31.459Z,1019.04
2017-03-26T11:54:12.114Z,1019.04
2017-03-26T11:54:52.767Z,1019.03
2017-03-26T11:55:33.424Z,1019
2017-03-26T11:56:14.076Z,1018.99
2017-03-26T11:56:54.651Z,1019.05
2017-03-26T11:57:35.340Z,1019.06
2017-03-26T11:58:16.034Z,1019.04
2017-03-26T11:58:56.681Z,1019.04
2017-03-26T11:59:37.259Z,1019.03
2017-03-26T12:00:17.830Z,1018.97
2017-03-26T12:00:58.444Z,1018.97
2017-03-26T12:01:39.111Z,1019
2017-03-26T12:02:19.721Z,1019.01
2017-03-26T12:03:01.363Z,1019.06
2017-03-26T12:03:41.972Z,1019.03
2017-03-26T12:04:22.528Z,1019.01
2017-03-26T12:05:03.177Z,1019.01
2017-03-26T12:05:43.830Z,1019.04
2017-03-26T12:06:24.390Z,1019.07
2017-03-26T12:07:05.030Z,1019.09
2017-03-26T12:07:45.678Z,1019.08
2017-03-26T12:08:26.341Z,1019.07
2017-03-26T12:09:06.988Z,1019.09
2017-03-26T12:09:47.641Z,1019.08
2017-03-26T12:10:28.295Z,1019.02
2017-03-26T12:11:08.946Z,1019.01
2017-03-26T12:11:49.554Z,1018.98
2017-03-26T12:12:30.204Z,1018.98
2017-03-26T12:13:10.802Z,1019
2017-03-26T12:13:51.456Z,1019.02
2017-03-26T12:14:32.035Z,1018.97
2017-03-26T12:15:12.710Z,1018.96
2017-03-26T12:15:53.318Z,1018.96
2017-03-26T12:16:33.969Z,1018.91
2017-03-26T12:17:14.622Z,1018.95
2017-03-26T12:17:55.265Z,1018.93
2017-03-26T12:18:35.925Z,1018.93
2017-03-26T12:19:16.523Z,1018.91
2017-03-26T12:19:57.136Z,1018.88
2017-03-26T12:20:37.780Z,1018.88
2017-03-26T12:21:18.434Z,1018.89
2017-03-26T12:21:59.087Z,1018.82
2017-03-26T12:22:39.737Z,1018.85
2017-03-26T12:23:20.391Z,1018.82
2017-03-26T12:24:00.967Z,1018.88
2017-03-26T12:24:41.595Z,1018.85
2017-03-26T12:25:22.250Z,1018.8
2017-03-26T12:26:02.909Z,1018.81
2017-03-26T12:26:43.469Z,1018.79
2017-03-26T12:27:24.064Z,1018.85
2017-03-26T12:28:05.695Z,1018.82
2017-03-26T12:28:46.335Z,1018.81
2017-03-26T12:29:26.905Z,1018.79
2017-03-26T12:30:07.476Z,1018.8
2017-03-26T12:30:48.093Z,1018.77
2017-03-26T12:31:28.740Z,1018.77
2017-03-26T12:32:09.391Z,1018.75
2017-03-26T12:32:50.043Z,1018.74
2017-03-26T12:33:30.704Z,1018.76
2017-03-26T12:34:11.374Z,1018.75
2017-03-26T12:34:52.005Z,1018.72
2017-03-26T12:35:32.663Z,1018.74
2017-03-26T12:36:13.315Z,1018.76
2017-03-26T12:36:53.910Z,1018.73
2017-03-26T12:37:34.640Z,1018.72
2017-03-26T12:38:15.197Z,1018.69
2017-03-26T12:38:55.791Z,1018.7
2017-03-26T12:39:36.428Z,1018.7
2017-03-26T12:40:17.033Z,1018.71
2017-03-26T12:40:57.589Z,1018.69
2017-03-26T12:41:38.234Z,1018.69
2017-03-26T12:42:18.878Z,1018.74
2017-03-26T12:42:59.461Z,1018.69
2017-03-26T12:43:40.050Z,1018.7
2017-03-26T12:44:20.642Z,1018.65
2017-03-26T12:45:01.287Z,1018.72
2017-03-26T12:45:41.861Z,1018.66
2017-03-26T12:46:22.555Z,1018.69
2017-03-26T12:47:03.122Z,1018.71
2017-03-26T12:47:43.814Z,1018.69
2017-03-26T12:48:24.445Z,1018.73
2017-03-26T12:49:05.015Z,1018.69
2017-03-26T12:49:45.609Z,1018.69
2017-03-26T12:50:26.224Z,1018.68
2017-03-26T12:51:06.859Z,1018.65
2017-03-26T12:51:47.426Z,1018.64
2017-03-26T12:52:28.021Z,1018.65
2017-03-26T12:53:08.617Z,1018.67
2017-03-26T12:53:49.263Z,1018.64
2017-03-26T12:54:29.819Z,1018.62
2017-03-26T12:55:10.387Z,1018.71
2017-03-26T12:55:50.971Z,1018.63
2017-03-26T12:56:31.624Z,1018.64
2017-03-26T12:57:12.269Z,1018.61
2017-03-26T12:57:52.837Z,1018.63
2017-03-26T12:58:33.481Z,1018.63
2017-03-26T12:59:14.131Z,1018.57
2017-03-26T12:59:54.787Z,1018.57
2017-03-26T13:00:35.463Z,1018.59
2017-03-26T13:01:16.091Z,1018.56
2017-03-26T13:01:56.771Z,1018.54
2017-03-26T13:02:37.346Z,1018.56
2017-03-26T13:03:17.903Z,1018.57
2017-03-26T13:03:58.557Z,1018.58
2017-03-26T13:04:39.196Z,1018.59
2017-03-26T13:05:19.769Z,1018.58
2017-03-26T13:06:00.406Z,1018.61
2017-03-26T13:06:41.053Z,1018.59
2017-03-26T13:07:21.640Z,1018.58
2017-03-26T13:08:02.257Z,1018.6
2017-03-26T13:08:42.847Z,1018.53
2017-03-26T13:09:23.530Z,1018.55
2017-03-26T13:10:04.117Z,1018.56
2017-03-26T13:10:44.781Z,1018.52
2017-03-26T13:11:25.426Z,1018.58
2017-03-26T13:12:06.042Z,1018.5
2017-03-26T13:12:46.700Z,1018.48
2017-03-26T13:13:27.342Z,1018.51
2017-03-26T13:14:07.981Z,1018.49
2017-03-26T13:14:48.659Z,1018.48
2017-03-26T13:15:29.289Z,1018.46
2017-03-26T13:16:09.955Z,1018.47
2017-03-26T13:16:50.600Z,1018.45
2017-03-26T13:17:31.199Z,1018.46
2017-03-26T13:18:11.852Z,1018.44
2017-03-26T13:18:52.432Z,1018.42
2017-03-26T13:19:33.102Z,1018.45
2017-03-26T13:20:13.722Z,1018.46
2017-03-26T13:20:54.360Z,1018.43
2017-03-26T13:21:34.948Z,1018.45
2017-03-26T13:22:15.555Z,1018.48
2017-03-26T13:22:56.211Z,1018.51
2017-03-26T13:23:36.776Z,1018.46
2017-03-26T13:24:17.438Z,1018.42
2017-03-26T13:24:58.069Z,1018.4
2017-03-26T13:25:38.674Z,1018.44
2017-03-26T13:26:19.266Z,1018.52
2017-03-26T13:26:59.925Z,1018.44
2017-03-26T13:27:40.584Z,1018.43
2017-03-26T13:28:21.235Z,1018.41
2017-03-26T13:29:01.883Z,1018.41
2017-03-26T13:29:42.538Z,1018.45
2017-03-26T13:30:23.194Z,1018.44
2017-03-26T13:31:03.841Z,1018.43
2017-03-26T13:31:44.500Z,1018.47
2017-03-26T13:32:25.151Z,1018.46
2017-03-26T13:33:05.807Z,1018.48
2017-03-26T13:33:46.476Z,1018.47
2017-03-26T13:34:27.113Z,1018.43
2017-03-26T13:35:07.763Z,1018.46
2017-03-26T13:35:48.422Z,1018.47
2017-03-26T13:36:29.070Z,1018.44
2017-03-26T13:37:09.662Z,1018.46
2017-03-26T13:37:50.311Z,1018.43
2017-03-26T13:38:30.930Z,1018.46
2017-03-26T13:39:11.527Z,1018.45
2017-03-26T13:39:52.136Z,1018.4
2017-03-26T13:40:32.787Z,1018.47
2017-03-26T13:41:13.382Z,1018.48
2017-03-26T13:41:54.060Z,1018.5
2017-03-26T13:42:34.729Z,1018.42
2017-03-26T13:43:15.399Z,1018.48
2017-03-26T13:43:56.035Z,1018.44
2017-03-26T13:44:36.672Z,1018.41
2017-03-26T13:45:17.323Z,1018.43
2017-03-26T13:45:57.985Z,1018.42
2017-03-26T13:46:38.630Z,1018.37
2017-03-26T13:47:19.280Z,1018.42
2017-03-26T13:47:59.868Z,1018.35
2017-03-26T13:48:40.542Z,1018.36
2017-03-26T13:49:21.137Z,1018.3
2017-03-26T13:50:01.789Z,1018.3
2017-03-26T13:50:42.339Z,1018.37
2017-03-26T13:51:22.948Z,1018.32
2017-03-26T13:52:03.546Z,1018.33
2017-03-26T13:52:44.195Z,1018.41
2017-03-26T13:53:24.803Z,1018.33
2017-03-26T13:54:05.400Z,1018.32
2017-03-26T13:54:46.051Z,1018.33
2017-03-26T13:55:26.613Z,1018.36
2017-03-26T13:56:07.268Z,1018.34
2017-03-26T13:56:47.907Z,1018.3
2017-03-26T13:57:28.563Z,1018.25
2017-03-26T13:58:09.213Z,1018.29
2017-03-26T13:58:49.878Z,1018.31
2017-03-26T13:59:30.531Z,1018.28
2017-03-26T14:00:11.183Z,1018.28
2017-03-26T14:00:51.837Z,1018.3
2017-03-26T14:01:32.489Z,1018.28
2017-03-26T14:02:13.134Z,1018.24
2017-03-26T14:02:53.787Z,1018.26
2017-03-26T14:03:34.435Z,1018.21
2017-03-26T14:04:15.086Z,1018.2
2017-03-26T14:04:55.740Z,1018.18
2017-03-26T14:05:36.327Z,1018.2
2017-03-26T14:06:16.957Z,1018.22
2017-03-26T14:06:57.573Z,1018.19
2017-03-26T14:07:38.217Z,1018.22
2017-03-26T14:08:18.824Z,1018.2
2017-03-26T14:08:59.682Z,1018.16
2017-03-26T14:09:40.504Z,1018.21
2017-03-26T14:10:21.135Z,1018.2
2017-03-26T14:11:01.858Z,1018.23
2017-03-26T14:11:42.436Z,1018.25
2017-03-26T14:12:23.046Z,1018.23
2017-03-26T14:13:03.680Z,1018.18
2017-03-26T14:13:44.292Z,1018.17
2017-03-26T14:14:24.886Z,1018.15
2017-03-26T14:15:05.572Z,1018.15
2017-03-26T14:15:46.253Z,1018.13
2017-03-26T14:16:26.853Z,1018.12
2017-03-26T14:17:07.538Z,1018.12
2017-03-26T14:17:48.176Z,1018.04
2017-03-26T14:18:28.752Z,1018.14
2017-03-26T14:19:09.383Z,1018.1
2017-03-26T14:19:50.012Z,1018.11
2017-03-26T14:20:30.684Z,1018.13
2017-03-26T14:21:11.277Z,1018.15
2017-03-26T14:21:51.888Z,1018.15
2017-03-26T14:22:32.475Z,1018.1
2017-03-26T14:23:13.095Z,1018.09
2017-03-26T14:23:53.796Z,1018.08
2017-03-26T14:24:34.335Z,1018.04
2017-03-26T14:25:14.951Z,1018.1
2017-03-26T14:25:55.603Z,1018.07
2017-03-26T14:26:36.175Z,1018.16
2017-03-26T14:27:16.807Z,1018.15
2017-03-26T14:27:57.460Z,1018.12
2017-03-26T14:28:38.115Z,1018.11
2017-03-26T14:29:18.765Z,1018.1
2017-03-26T14:29:59.419Z,1018.11
2017-03-26T14:30:40.096Z,1018.07
2017-03-26T14:31:20.827Z,1018.12
2017-03-26T14:32:01.481Z,1018.15
2017-03-26T14:32:42.132Z,1018.12
2017-03-26T14:33:22.786Z,1018.08
2017-03-26T14:34:03.439Z,1018.1
2017-03-26T14:34:44.092Z,1018.12
2017-03-26T14:35:24.744Z,1018.1
2017-03-26T14:36:05.399Z,1018.05
2017-03-26T14:36:46.047Z,1018.08
2017-03-26T14:37:26.705Z,1018.04
2017-03-26T14:38:07.279Z,1018.06
2017-03-26T14:38:47.906Z,1018.03
2017-03-26T14:39:28.566Z,1018.03
2017-03-26T14:40:09.214Z,1018.01
2017-03-26T14:40:49.844Z,1018.03
2017-03-26T14:41:30.479Z,1018.05
2017-03-26T14:42:11.130Z,1018.04
2017-03-26T14:42:51.823Z,1018.02
2017-03-26T14:43:32.402Z,1018.07
2017-03-26T14:44:13.034Z,1018.04
2017-03-26T14:44:53.679Z,1018.03
2017-03-26T14:45:34.260Z,1018.03
2017-03-26T14:46:14.893Z,1018.04
2017-03-26T14:46:55.549Z,1018
2017-03-26T14:47:36.196Z,1017.93
2017-03-26T14:48:16.844Z,1017.94
2017-03-26T14:48:57.495Z,1017.95
2017-03-26T14:49:38.148Z,1018
2017-03-26T14:50:18.700Z,1017.98
2017-03-26T14:50:59.351Z,1017.96
2017-03-26T14:51:40.004Z,1017.95
2017-03-26T14:52:20.678Z,1017.94
2017-03-26T14:53:01.415Z,1017.94
2017-03-26T14:53:42.078Z,1017.99
2017-03-26T14:54:22.719Z,1017.99
2017-03-26T14:55:03.372Z,1017.94
2017-03-26T14:55:44.026Z,1017.97
2017-03-26T14:56:24.676Z,1017.94
2017-03-26T14:57:05.273Z,1017.98
2017-03-26T14:57:45.852Z,1017.97
2017-03-26T14:58:26.432Z,1018.02
2017-03-26T14:59:07.083Z,1018
2017-03-26T14:59:47.660Z,1018.01
2017-03-26T15:00:28.238Z,1017.95
2017-03-26T15:01:08.832Z,1017.98
2017-03-26T15:01:49.496Z,1018.02
2017-03-26T15:02:30.085Z,1017.97
2017-03-26T15:03:10.693Z,1017.97
2017-03-26T15:03:51.347Z,1018.01
2017-03-26T15:04:31.924Z,1017.99
2017-03-26T15:05:12.560Z,1018.04
2017-03-26T15:05:53.210Z,1018
2017-03-26T15:06:33.787Z,1018.01
2017-03-26T15:07:14.413Z,1017.96
2017-03-26T15:07:55.062Z,1017.98
2017-03-26T15:08:35.637Z,1017.96
2017-03-26T15:09:16.338Z,1018
2017-03-26T15:09:57.013Z,1018.01
2017-03-26T15:10:37.678Z,1017.97
2017-03-26T15:11:18.233Z,1018.02
2017-03-26T15:11:58.828Z,1017.99
2017-03-26T15:12:39.480Z,1017.95
2017-03-26T15:13:20.128Z,1017.99
2017-03-26T15:14:00.703Z,1018
2017-03-26T15:14:41.282Z,1018.07
2017-03-26T15:15:21.885Z,1018.06
2017-03-26T15:16:02.537Z,1018.04
2017-03-26T15:16:43.144Z,1018.02
2017-03-26T15:17:23.803Z,1018.02
2017-03-26T15:18:04.495Z,1018.02
2017-03-26T15:18:45.146Z,1018
2017-03-26T15:19:25.712Z,1017.97
2017-03-26T15:20:06.292Z,1017.98
2017-03-26T15:20:46.901Z,1017.98
2017-03-26T15:21:27.474Z,1018.01
2017-03-26T15:22:08.153Z,1018.01
2017-03-26T15:22:48.854Z,1017.98
2017-03-26T15:23:29.520Z,1017.98
2017-03-26T15:24:10.168Z,1017.99
2017-03-26T15:24:50.820Z,1018.01
2017-03-26T15:25:31.468Z,1017.99
2017-03-26T15:26:12.116Z,1018.01
2017-03-26T15:26:52.777Z,1017.99
2017-03-26T15:27:33.413Z,1018.01
2017-03-26T15:28:14.105Z,1017.99
2017-03-26T15:28:54.732Z,1018.01
2017-03-26T15:29:35.398Z,1017.98
2017-03-26T15:30:16.043Z,1017.98
2017-03-26T15:30:56.704Z,1017.96
2017-03-26T15:31:37.360Z,1017.9
2017-03-26T15:32:18.012Z,1017.99
2017-03-26T15:32:58.648Z,1018.01
2017-03-26T15:33:39.227Z,1017.98
2017-03-26T15:34:19.845Z,1017.97
2017-03-26T15:35:00.508Z,1017.93
2017-03-26T15:35:41.076Z,1017.97
2017-03-26T15:36:21.734Z,1017.99
2017-03-26T15:37:02.481Z,1017.93
2017-03-26T15:37:43.115Z,1017.98
2017-03-26T15:38:23.770Z,1017.92
2017-03-26T15:39:04.426Z,1017.93
2017-03-26T15:39:45.074Z,1017.94
2017-03-26T15:40:25.748Z,1017.95
2017-03-26T15:41:06.387Z,1017.91
2017-03-26T15:41:47.042Z,1017.88
2017-03-26T15:42:27.688Z,1017.91
2017-03-26T15:43:08.340Z,1017.94
2017-03-26T15:43:49.001Z,1017.96
2017-03-26T15:44:29.588Z,1017.91
2017-03-26T15:45:10.322Z,1017.94
2017-03-26T15:45:50.966Z,1017.94
2017-03-26T15:46:31.599Z,1017.91
2017-03-26T15:47:12.263Z,1017.89
2017-03-26T15:47:52.932Z,1017.95
2017-03-26T15:48:33.558Z,1017.96
2017-03-26T15:49:14.269Z,1017.92
2017-03-26T15:49:54.974Z,1017.94
2017-03-26T15:50:35.643Z,1017.94
2017-03-26T15:51:16.289Z,1017.97
2017-03-26T15:51:56.942Z,1017.96
2017-03-26T15:52:37.585Z,1017.96
2017-03-26T15:53:18.142Z,1017.94
2017-03-26T15:53:58.795Z,1017.96
2017-03-26T15:54:39.346Z,1017.91
2017-03-26T15:55:19.994Z,1017.98
2017-03-26T15:56:00.545Z,1017.97
2017-03-26T15:56:41.217Z,1017.95
2017-03-26T15:57:21.851Z,1017.94
2017-03-26T15:58:03.526Z,1017.94
2017-03-26T15:58:44.186Z,1017.93
2017-03-26T15:59:24.836Z,1017.96
2017-03-26T16:00:05.492Z,1017.94
2017-03-26T16:00:46.144Z,1017.92
2017-03-26T16:01:26.725Z,1017.91
2017-03-26T16:02:07.342Z,1017.92
2017-03-26T16:02:47.999Z,1017.91
2017-03-26T16:03:28.653Z,1017.88
2017-03-26T16:04:09.305Z,1017.9
2017-03-26T16:04:49.964Z,1017.89
2017-03-26T16:05:30.607Z,1017.93
2017-03-26T16:06:11.266Z,1017.92
2017-03-26T16:06:51.918Z,1017.92
2017-03-26T16:07:32.495Z,1017.92
2017-03-26T16:08:13.175Z,1017.93
2017-03-26T16:08:53.880Z,1017.91
2017-03-26T16:09:34.526Z,1017.94
2017-03-26T16:10:15.120Z,1017.94
2017-03-26T16:10:55.782Z,1017.96
2017-03-26T16:11:36.496Z,1017.95
2017-03-26T16:12:17.144Z,1017.89
2017-03-26T16:12:57.697Z,1017.93
2017-03-26T16:13:38.403Z,1017.94
2017-03-26T16:14:19.105Z,1017.92
2017-03-26T16:14:59.751Z,1017.91
2017-03-26T16:15:40.314Z,1017.93
2017-03-26T16:16:21.029Z,1017.91
2017-03-26T16:17:01.732Z,1017.93
2017-03-26T16:17:42.477Z,1017.93
2017-03-26T16:18:23.053Z,1017.91
2017-03-26T16:19:03.736Z,1017.91
2017-03-26T16:19:44.411Z,1017.91
2017-03-26T16:20:25.083Z,1017.93
2017-03-26T16:21:05.709Z,1017.93
2017-03-26T16:21:46.251Z,1017.96
2017-03-26T16:22:26.890Z,1017.93
2017-03-26T16:23:07.556Z,1017.95
2017-03-26T16:23:48.201Z,1017.94
2017-03-26T16:24:28.850Z,1017.96
2017-03-26T16:25:09.507Z,1017.91
2017-03-26T16:25:50.156Z,1018
2017-03-26T16:26:30.856Z,1017.99
2017-03-26T16:27:11.564Z,1017.99
2017-03-26T16:27:52.249Z,1017.99
2017-03-26T16:28:32.913Z,1018.01
2017-03-26T16:29:13.511Z,1017.98
2017-03-26T16:29:54.186Z,1017.98
2017-03-26T16:30:34.879Z,1018
2017-03-26T16:31:15.634Z,1018.04